Copperton, Utah
Current Conditions -  °F | °C
As of 6:53 AM on Monday 26 Jan 2015 (Local Time) from KSLC Reporting Station
Clear Clear  
Wind Chill: 26°   Ceiling: Unl
Heat Index: 32°   Visibility: 10mi
Dew Point: 28°   Wind: 6mph
Humidity: 85%   Direction: 140°SE
Pressure: 30.39"   Gusts: NA
Location:  40.5425°N, 112.133°W
Report Text: KSLC 261353Z 14005KT 10SM CLR 00/M02 A3039 RMK AO2 SLP302 T00001022
Loading
Personal Weather Stations






























Interactive Weather Map New forecast layout! Learn more

10-Day Weather Forecast

Advertisements
Track Severe Weather on mobile